Pride Of Kent — MQCJ2 — position and weather

sailwx.info

Track history (hours):
 
Tides and Currents Weather Stations Pressure Air Temp Water Temp Dewpoint Dewpoint Depression Visibility Wind Speed Wind Dir Waves Ship Positions

Pride Of Kent

Operator: P & O Ferries

Last reported at 2018-Sep-19 03:03 UTC. Time now 2018-Sep-19 03:08 UTC.
Position N 50°60' E 001°42'.

Length 180 m; draft 6 m.

Type: Passenger vessel. MMSI: 232009000.

Date/timePositionNaut miles runAvg speedWind from/ knotsBaromVisibWave heightAir tempDewpointWater temp
2018-Sep-19 03:03N 50°60' E 001°42'119.8
2018-Sep-19 03:00N 50°59' E 001°43'510.3
2018-Sep-19 02:30N 50°58' E 001°51'0 0.0
2018-Sep-19 02:02N 50°58' E 001°51'0 0.0
2018-Sep-19 01:58N 50°58' E 001°51'0 0.9
2018-Sep-19 01:30N 50°58' E 001°50'510.8
2018-Sep-19 01:03N 50°58' E 001°43'0 4.6
2018-Sep-19 01:00N 50°58' E 001°42'5 9.6
2018-Sep-19 00:30N 51°00' E 001°35'919.2
2018-Sep-19 00:03N 51°06' E 001°25'119.4
2018-Sep-19 00:00N 51°06' E 001°24'3 4.8
2018-Sep-18 23:28N 51°07' E 001°20'0 0.0
2018-Sep-18 23:03N 51°07' E 001°20'0 0.0
2018-Sep-18 23:00N 51°07' E 001°20'0 0.0
2018-Sep-18 22:21N 51°07' E 001°20'0 0.0
2018-Sep-18 22:03N 51°07' E 001°20'0 0.0
2018-Sep-18 22:00N 51°07' E 001°20'0 0.0
2018-Sep-18 21:30N 51°07' E 001°20'0 0.0
2018-Sep-18 21:03N 51°07' E 001°20'0 0.1
2018-Sep-18 21:00N 51°07' E 001°20'0 0.4
2018-Sep-18 20:30N 51°07' E 001°20'817.2
2018-Sep-18 20:03N 51°04' E 001°32'118.9
2018-Sep-18 20:00N 51°04' E 001°33'918.4
2018-Sep-18 19:30N 50°58' E 001°45'4 9.8
2018-Sep-18 19:03N 50°58' E 001°52'0 0.0
2018-Sep-18 19:00N 50°58' E 001°52'0 0.0
2018-Sep-18 18:29N 50°58' E 001°52'1 1.8
2018-Sep-18 18:02N 50°58' E 001°50'011.0
2018-Sep-18 18:00N 50°58' E 001°50'916.5
2018-Sep-18 17:29N 51°00' E 001°36'819.0
2018-Sep-18 17:04N 51°05' E 001°26'119.4
2018-Sep-18 17:01N 51°05' E 001°25'4 4.7
2018-Sep-18 16:14N 51°07' E 001°20'0 0.5
2018-Sep-18 15:55N 51°07' E 001°20'511.0
2018-Sep-18 15:30N 51°08' E 001°27'512.0
2018-Sep-18 15:04N 51°05' E 001°35'118.2
2018-Sep-18 15:01N 51°04' E 001°36'1111.9
2018-Sep-18 14:03N 50°58' E 001°51'0 0.0
2018-Sep-18 14:00N 50°58' E 001°51'0 0.3
2018-Sep-18 13:27N 50°58' E 001°51'616.0
2018-Sep-18 13:04N 50°58' E 001°41'118.8
2018-Sep-18 13:00N 50°59' E 001°39'918.2
2018-Sep-18 12:31N 51°04' E 001°28'6 4.6
2018-Sep-18 11:14N 51°07' E 001°20'0 0.8
2018-Sep-18 11:02N 51°07' E 001°20'0 1.4
2018-Sep-18 11:00N 51°07' E 001°20'2 4.9
2018-Sep-18 10:30N 51°07' E 001°24'0 1.1
2018-Sep-18 10:03N 51°08' E 001°25'0 0.7
2018-Sep-18 10:01N 51°08' E 001°25'1 1.3
2018-Sep-18 09:30N 51°08' E 001°26'3 6.3
2018-Sep-18 09:03N 51°06' E 001°29'113.2
2018-Sep-18 09:01N 51°06' E 001°30'816.0
2018-Sep-18 08:30N 51°01' E 001°40'716.1
2018-Sep-18 08:03N 50°58' E 001°50'0 4.9
2018-Sep-18 08:00N 50°58' E 001°51'0 0.3
2018-Sep-18 07:30N 50°58' E 001°51'0 0.0
2018-Sep-18 07:03N 50°58' E 001°51'0 0.0
2018-Sep-18 07:00N 50°58' E 001°51'612.2
2018-Sep-18 06:30N 50°59' E 001°41'818.9
2018-Sep-18 06:03N 51°03' E 001°30'118.4
2018-Sep-18 06:00N 51°04' E 001°29'713.3
2018-Sep-18 05:30N 51°07' E 001°20'0 0.0
2018-Sep-18 05:03N 51°07' E 001°20'0 0.0
2018-Sep-18 04:59N 51°07' E 001°20'0 0.0
2018-Sep-18 04:30N 51°07' E 001°20'3 7.7
2018-Sep-18 04:04N 51°06' E 001°25'118.2
2018-Sep-18 04:01N 51°06' E 001°27'918.6
2018-Sep-18 03:30N 51°01' E 001°39'716.6
2018-Sep-18 03:03N 50°58' E 001°50'0 8.3
2018-Sep-18 03:01N 50°58' E 001°51'0 0.4
2018-Sep-18 02:30N 50°58' E 001°51'0 0.0
2018-Sep-18 02:01N 50°58' E 001°51'0 0.0
2018-Sep-18 02:00N 50°58' E 001°51'0 0.0
2018-Sep-18 01:30N 50°58' E 001°51'3 7.2
2018-Sep-18 01:04N 50°58' E 001°46'118.0
2018-Sep-18 01:00N 50°58' E 001°45'917.2
2018-Sep-18 00:30N 51°02' E 001°32'817.3
2018-Sep-18 00:03N 51°07' E 001°23'116.0
2018-Sep-18 00:01N 51°07' E 001°22'1 1.9
2018-Sep-17 23:30N 51°07' E 001°20'0 0.3
2018-Sep-17 23:03N 51°07' E 001°20'0 1.6
2018-Sep-17 23:00N 51°07' E 001°20'714.9
2018-Sep-17 22:30N 51°04' E 001°31'817.9
2018-Sep-17 22:03N 50°60' E 001°42'118.1
2018-Sep-17 22:00N 50°59' E 001°43'510.9
2018-Sep-17 21:30N 50°58' E 001°51'0 0.0
2018-Sep-17 21:03N 50°58' E 001°51'0 0.0
2018-Sep-17 21:01N 50°58' E 001°51'0 0.5
2018-Sep-17 20:30N 50°58' E 001°51'715.3
2018-Sep-17 20:03N 50°59' E 001°40'118.2
2018-Sep-17 20:00N 50°59' E 001°39'917.8
2018-Sep-17 19:30N 51°04' E 001°27'511.6
2018-Sep-17 19:03N 51°07' E 001°20'0 0.0
2018-Sep-17 19:00N 51°07' E 001°20'0 0.0
2018-Sep-17 18:30N 51°07' E 001°20'1 3.3
2018-Sep-17 18:03N 51°07' E 001°22'117.5
2018-Sep-17 18:01N 51°07' E 001°24'918.6
2018-Sep-17 17:30N 51°02' E 001°36'817.5
2018-Sep-17 17:03N 50°58' E 001°47'117.1
2018-Sep-17 17:00N 50°58' E 001°48'2 3.1
2018-Sep-17 16:30N 50°58' E 001°51'0 0.0
2018-Sep-17 16:03N 50°58' E 001°51'0 0.9
2018-Sep-17 15:59N 50°58' E 001°51'816.6
2018-Sep-17 15:30N 50°60' E 001°38'919.2
2018-Sep-17 15:03N 51°04' E 001°27'119.0
2018-Sep-17 15:00N 51°05' E 001°26'4 8.7
2018-Sep-17 14:30N 51°07' E 001°20'0 0.0
2018-Sep-17 14:00N 51°07' E 001°20'5 9.3
2018-Sep-17 13:31N 51°06' E 001°27'919.2
2018-Sep-17 13:04N 51°01' E 001°38'119.4
2018-Sep-17 13:01N 51°00' E 001°39'815.2
2018-Sep-17 12:30N 50°58' E 001°51'0 0.4
2018-Sep-17 12:03N 50°58' E 001°51'0 0.0
2018-Sep-17 12:00N 50°58' E 001°51'0 0.3
2018-Sep-17 11:30N 50°58' E 001°51'715.9
2018-Sep-17 11:03N 50°59' E 001°39'118.0
2018-Sep-17 11:01N 50°59' E 001°38'918.6
2018-Sep-17 10:30N 51°04' E 001°26'5 9.5
2018-Sep-17 09:59N 51°07' E 001°20'0 0.0
2018-Sep-17 09:29N 51°07' E 001°20'0 0.2
2018-Sep-17 09:03N 51°07' E 001°20'0 2.3
2018-Sep-17 09:00N 51°07' E 001°20'917.6
2018-Sep-17 08:31N 51°04' E 001°33'919.0
2018-Sep-17 08:04N 50°58' E 001°44'119.0
2018-Sep-17 08:01N 50°58' E 001°45'4 7.5
2018-Sep-17 07:30N 50°58' E 001°51'0 0.0
2018-Sep-17 07:02N 50°58' E 001°51'0 0.0
2018-Sep-17 06:58N 50°58' E 001°51'3 7.6
2018-Sep-17 06:30N 50°58' E 001°46'817.4
2018-Sep-17 06:03N 51°00' E 001°34'117.6
2018-Sep-17 05:59N 51°01' E 001°32'817.8
2018-Sep-17 05:30N 51°07' E 001°22'1 3.2
2018-Sep-17 05:03N 51°07' E 001°20'0 0.0
2018-Sep-17 05:00N 51°07' E 001°20'0 0.0
2018-Sep-17 04:30N 51°07' E 001°20'2 4.4
2018-Sep-17 04:04N 51°07' E 001°23'116.8
2018-Sep-17 04:00N 51°07' E 001°24'918.1
2018-Sep-17 03:30N 51°02' E 001°37'714.7
2018-Sep-17 03:03N 50°58' E 001°45'110.4
2018-Sep-17 03:00N 50°58' E 001°46'3 6.4
2018-Sep-17 02:30N 50°58' E 001°51'0 0.0
2018-Sep-17 02:03N 50°58' E 001°51'0 0.0
2018-Sep-17 02:01N 50°58' E 001°51'0 0.0
2018-Sep-17 01:30N 50°58' E 001°51'3 5.9
2018-Sep-17 01:03N 50°58' E 001°47'116.6
2018-Sep-17 01:00N 50°58' E 001°46'816.8
2018-Sep-17 00:30N 51°02' E 001°34'817.3
2018-Sep-17 00:03N 51°06' E 001°23'117.0
2018-Sep-17 00:00N 51°06' E 001°22'2 3.6
2018-Sep-16 23:30N 51°07' E 001°20'0 0.0
2018-Sep-16 23:03N 51°07' E 001°20'0 1.5
2018-Sep-16 22:58N 51°07' E 001°20'613.6
2018-Sep-16 22:30N 51°05' E 001°29'817.0
2018-Sep-16 22:03N 51°01' E 001°39'117.0
2018-Sep-16 22:00N 51°00' E 001°40'713.5
2018-Sep-16 21:30N 50°58' E 001°51'0 0.4
2018-Sep-16 21:03N 50°58' E 001°51'0 0.0
2018-Sep-16 21:00N 50°58' E 001°51'0 0.0
2018-Sep-16 20:30N 50°58' E 001°51'511.9
2018-Sep-16 20:03N 50°58' E 001°43'117.7
2018-Sep-16 20:00N 50°59' E 001°41'917.5
2018-Sep-16 19:30N 51°04' E 001°30'716.0
2018-Sep-16 19:03N 51°07' E 001°20'0 0.1
2018-Sep-16 19:00N 51°07' E 001°20'0 0.0
2018-Sep-16 18:30N 51°07' E 001°20'3 5.7
2018-Sep-16 18:03N 51°07' E 001°24'117.8
2018-Sep-16 18:00N 51°06' E 001°25'918.6
2018-Sep-16 17:31N 51°02' E 001°38'816.9
2018-Sep-16 17:03N 50°58' E 001°49'116.0
2018-Sep-16 17:00N 50°58' E 001°50'1 1.2
2018-Sep-16 16:30N 50°58' E 001°51'0 0.0
2018-Sep-16 16:03N 50°58' E 001°51'0 0.0
2018-Sep-16 16:00N 50°58' E 001°51'714.6
2018-Sep-16 15:30N 50°59' E 001°39'919.7
2018-Sep-16 15:03N 51°04' E 001°28'119.6
2018-Sep-16 15:00N 51°05' E 001°27'5 9.3
2018-Sep-16 14:28N 51°07' E 001°20'5 5.2
2018-Sep-16 13:30N 51°05' E 001°27'919.2
2018-Sep-16 13:03N 51°01' E 001°39'119.5
2018-Sep-16 13:00N 51°00' E 001°40'713.9
2018-Sep-16 12:30N 50°58' E 001°51'0 0.4
2018-Sep-16 12:03N 50°58' E 001°51'0 0.0
2018-Sep-16 12:00N 50°58' E 001°51'0 0.3
2018-Sep-16 11:30N 50°58' E 001°51'715.8
2018-Sep-16 11:03N 50°58' E 001°40'118.1
2018-Sep-16 11:00N 50°59' E 001°38'917.9
2018-Sep-16 10:31N 51°03' E 001°26'612.7
2018-Sep-16 10:03N 51°07' E 001°20'0 0.0
2018-Sep-16 10:00N 51°07' E 001°20'0 0.0
2018-Sep-16 09:30N 51°07' E 001°20'0 0.2
2018-Sep-16 09:04N 51°07' E 001°20'0 9.1
2018-Sep-16 09:00N 51°07' E 001°21'919.0
2018-Sep-16 08:30N 51°03' E 001°34'919.4
2018-Sep-16 08:03N 50°58' E 001°46'119.2
2018-Sep-16 08:00N 50°58' E 001°47'2 4.7
2018-Sep-16 07:30N 50°58' E 001°51'0 0.0
2018-Sep-16 07:03N 50°58' E 001°51'0 0.1
2018-Sep-16 07:00N 50°58' E 001°51'714.9
2018-Sep-16 06:30N 50°59' E 001°40'919.0
2018-Sep-16 06:03N 51°04' E 001°29'119.2
2018-Sep-16 06:00N 51°05' E 001°27'5 8.5
2018-Sep-16 05:23N 51°07' E 001°20'0 0.0
2018-Sep-16 04:57N 51°07' E 001°20'0 0.0
2018-Sep-16 04:30N 51°07' E 001°20'0 0.0
2018-Sep-16 04:00N 51°07' E 001°20'0 0.0
2018-Sep-16 03:24N 51°07' E 001°20'0 0.0
2018-Sep-16 03:02N 51°07' E 001°20'0 0.0
2018-Sep-16 02:35N 51°07' E 001°20'0 0.0
2018-Sep-16 02:29N 51°07' E 001°20'0 0.0
2018-Sep-16 01:59N 51°07' E 001°20'0 0.0
2018-Sep-16 01:30N 51°07' E 001°20'0 0.0
2018-Sep-16 01:01N 51°07' E 001°20'0 0.0
2018-Sep-16 00:44N 51°07' E 001°20'0 0.0
2018-Sep-16 00:27N 51°07' E 001°20'0 0.0
2018-Sep-15 23:56N 51°07' E 001°20'0 0.0
2018-Sep-15 23:30N 51°07' E 001°20'0 0.0
2018-Sep-15 23:00N 51°07' E 001°20'0 0.0
2018-Sep-15 22:28N 51°07' E 001°20'0 0.0
2018-Sep-15 22:00N 51°07' E 001°20'0 0.0
2018-Sep-15 21:26N 51°07' E 001°20'0 0.0
2018-Sep-15 20:58N 51°07' E 001°20'0 0.0
2018-Sep-15 20:24N 51°07' E 001°20'0 0.0
2018-Sep-15 19:54N 51°07' E 001°20'0 0.0
2018-Sep-15 18:42N 51°07' E 001°20'0 0.0
2018-Sep-15 18:27N 51°07' E 001°20'3 8.1
2018-Sep-15 18:03N 51°07' E 001°25'118.3
2018-Sep-15 18:00N 51°07' E 001°27'918.4
2018-Sep-15 17:30N 51°01' E 001°38'817.0
2018-Sep-15 17:03N 50°58' E 001°50'113.0
2018-Sep-15 17:00N 50°58' E 001°51'0 0.3
2018-Sep-15 15:58N 50°58' E 001°51'613.6
2018-Sep-15 15:30N 50°59' E 001°41'1019.9
2018-Sep-15 15:00N 51°04' E 001°27'6 6.1
2018-Sep-15 14:03N 51°07' E 001°20'0 0.0
2018-Sep-15 14:00N 51°07' E 001°20'3 6.8
2018-Sep-15 13:30N 51°06' E 001°25'919.3
2018-Sep-15 13:03N 51°02' E 001°37'119.2
2018-Sep-15 13:01N 51°01' E 001°38'816.6
2018-Sep-15 12:30N 50°58' E 001°51'0 0.7
2018-Sep-15 12:03N 50°58' E 001°51'0 0.0
2018-Sep-15 12:00N 50°58' E 001°51'0 0.0
2018-Sep-15 11:30N 50°58' E 001°51'613.1
2018-Sep-15 11:03N 50°59' E 001°42'117.8
2018-Sep-15 11:00N 50°59' E 001°40'918.5
2018-Sep-15 10:30N 51°04' E 001°28'613.5
2018-Sep-15 10:03N 51°07' E 001°20'0 0.0
2018-Sep-15 09:58N 51°07' E 001°20'0 0.0
2018-Sep-15 09:30N 51°07' E 001°20'1 1.8
2018-Sep-15 09:03N 51°07' E 001°21'119.1
2018-Sep-15 09:00N 51°07' E 001°23'918.8
2018-Sep-15 08:30N 51°03' E 001°36'818.7
2018-Sep-15 08:03N 50°58' E 001°47'119.5
2018-Sep-15 08:00N 50°58' E 001°49'1 2.8
2018-Sep-15 07:30N 50°58' E 001°51'0 0.0
2018-Sep-15 07:03N 50°58' E 001°51'0 1.9
2018-Sep-15 07:00N 50°58' E 001°51'613.0
2018-Sep-15 06:30N 50°58' E 001°41'716.6
2018-Sep-15 06:03N 51°02' E 001°30'110.8
2018-Sep-15 06:00N 51°02' E 001°30'815.0
2018-Sep-15 05:29N 51°07' E 001°20'0 0.0
2018-Sep-15 05:03N 51°07' E 001°20'0 0.0
2018-Sep-15 05:00N 51°07' E 001°20'0 0.0
2018-Sep-15 04:30N 51°07' E 001°20'4 8.1
2018-Sep-15 04:03N 51°06' E 001°25'116.6
2018-Sep-15 04:00N 51°06' E 001°27'817.0
2018-Sep-15 03:30N 51°01' E 001°38'715.4
2018-Sep-15 03:03N 50°58' E 001°48'115.3
2018-Sep-15 03:00N 50°58' E 001°49'1 2.0
2018-Sep-15 02:25N 50°58' E 001°51'0 0.0
2018-Sep-15 02:03N 50°58' E 001°51'0 0.0
2018-Sep-15 01:59N 50°58' E 001°51'0 0.0
2018-Sep-15 01:30N 50°58' E 001°51'4 8.3
2018-Sep-15 01:03N 50°58' E 001°45'118.9
2018-Sep-15 01:00N 50°58' E 001°44'917.8
2018-Sep-15 00:30N 51°02' E 001°31'817.1
2018-Sep-15 00:03N 51°06' E 001°21'114.6
2018-Sep-15 00:00N 51°07' E 001°20'1 1.5
2018-Sep-14 23:30N 51°07' E 001°20'0 0.3
2018-Sep-14 23:03N 51°07' E 001°20'0 1.1
2018-Sep-14 23:01N 51°07' E 001°20'714.7
2018-Sep-14 22:30N 51°04' E 001°31'817.1
2018-Sep-14 22:03N 50°60' E 001°41'117.5
2018-Sep-14 22:00N 50°59' E 001°42'611.3
2018-Sep-14 21:30N 50°58' E 001°51'0 0.0
2018-Sep-14 21:03N 50°58' E 001°51'0 0.0
2018-Sep-14 21:00N 50°58' E 001°51'0 0.4
2018-Sep-14 20:24N 50°58' E 001°51'514.7
2018-Sep-14 20:03N 50°58' E 001°43'117.2
2018-Sep-14 20:00N 50°59' E 001°41'918.1
2018-Sep-14 19:30N 51°03' E 001°29'715.3
2018-Sep-14 19:03N 51°07' E 001°20'0 0.0
2018-Sep-14 18:52N 51°07' E 001°20'0 0.0
2018-Sep-14 18:30N 51°07' E 001°20'1 3.1
2018-Sep-14 18:03N 51°07' E 001°22'117.7
2018-Sep-14 18:00N 51°07' E 001°24'918.0
2018-Sep-14 17:30N 51°02' E 001°36'817.5
2018-Sep-14 17:03N 50°58' E 001°46'117.5
2018-Sep-14 17:00N 50°58' E 001°48'2 3.6
2018-Sep-14 16:28N 50°58' E 001°51'1 2.4
2018-Sep-14 16:03N 50°58' E 001°49'117.7
2018-Sep-14 16:01N 50°58' E 001°48'1019.7
2018-Sep-14 15:29N 51°01' E 001°32'818.3
2018-Sep-14 15:03N 51°06' E 001°23'119.9
2018-Sep-14 15:01N 51°06' E 001°21'2 2.9
2018-Sep-14 14:29N 51°07' E 001°20'0 0.2
2018-Sep-14 14:00N 51°07' E 001°20'815.8
2018-Sep-14 13:31N 51°06' E 001°32'818.8
2018-Sep-14 13:03N 51°00' E 001°42'118.6
2018-Sep-14 13:00N 50°59' E 001°43'510.0
2018-Sep-14 12:29N 50°58' E 001°51'0 0.0
2018-Sep-14 12:03N 50°58' E 001°51'0 0.0
2018-Sep-14 12:00N 50°58' E 001°51'0 0.0
2018-Sep-14 11:29N 50°58' E 001°51'614.5
2018-Sep-14 11:03N 50°58' E 001°41'117.4
2018-Sep-14 10:59N 50°59' E 001°39'918.3
2018-Sep-14 10:30N 51°02' E 001°27'714.2
2018-Sep-14 10:03N 51°07' E 001°20'0 0.0
2018-Sep-14 10:01N 51°07' E 001°20'0 0.0
2018-Sep-14 09:29N 51°07' E 001°20'0 0.3
2018-Sep-14 09:04N 51°07' E 001°20'0 7.6
2018-Sep-14 09:00N 51°07' E 001°21'918.6
2018-Sep-14 08:31N 51°03' E 001°34'919.3
2018-Sep-14 08:03N 50°58' E 001°45'119.6
2018-Sep-14 08:00N 50°58' E 001°47'3 5.4
2018-Sep-14 07:30N 50°58' E 001°51'0 0.0
2018-Sep-14 07:03N 50°58' E 001°51'0 0.0
2018-Sep-14 07:00N 50°58' E 001°51'510.3
2018-Sep-14 06:31N 50°58' E 001°43'818.6
2018-Sep-14 06:03N 51°02' E 001°31'119.1
2018-Sep-14 06:00N 51°02' E 001°30'815.4
2018-Sep-14 05:30N 51°07' E 001°20'0 0.0
2018-Sep-14 05:02N 51°07' E 001°20'0 0.0
2018-Sep-14 05:00N 51°07' E 001°20'0 0.0
2018-Sep-14 04:30N 51°07' E 001°20'1 2.6
2018-Sep-14 04:04N 51°07' E 001°22'115.3
2018-Sep-14 04:01N 51°07' E 001°23'816.6
2018-Sep-14 03:31N 51°03' E 001°34'716.1
2018-Sep-14 03:04N 50°59' E 001°44'115.8
2018-Sep-14 03:00N 50°58' E 001°45'4 7.4
2018-Sep-14 02:30N 50°58' E 001°51'0 0.0
2018-Sep-14 02:02N 50°58' E 001°51'0 0.0
2018-Sep-14 02:00N 50°58' E 001°51'0 0.0
2018-Sep-14 01:27N 50°58' E 001°51'4 9.7
2018-Sep-14 01:03N 50°58' E 001°45'121.0
2018-Sep-14 01:00N 50°58' E 001°43'917.9
2018-Sep-14 00:30N 51°02' E 001°30'817.5
2018-Sep-14 00:03N 51°06' E 001°20'112.4
2018-Sep-14 00:00N 51°07' E 001°20'1 1.2
2018-Sep-13 23:30N 51°07' E 001°20'0 0.3
2018-Sep-13 23:01N 51°07' E 001°20'0 1.9
2018-Sep-13 23:00N 51°07' E 001°20'714.5
2018-Sep-13 22:31N 51°05' E 001°31'817.5
2018-Sep-13 22:04N 50°60' E 001°41'118.5
2018-Sep-13 22:00N 50°59' E 001°42'611.4
2018-Sep-13 21:30N 50°58' E 001°51'0 0.0
2018-Sep-13 21:03N 50°58' E 001°51'0 0.0
2018-Sep-13 21:00N 50°58' E 001°51'0 0.4
2018-Sep-13 20:30N 50°58' E 001°51'714.9
2018-Sep-13 20:04N 50°59' E 001°40'117.1
2018-Sep-13 20:01N 50°59' E 001°39'917.8
2018-Sep-13 19:30N 51°05' E 001°28'612.1
2018-Sep-13 19:03N 51°07' E 001°20'0 0.0
2018-Sep-13 19:00N 51°07' E 001°20'0 0.0
2018-Sep-13 18:30N 51°07' E 001°20'1 2.6
2018-Sep-13 18:03N 51°07' E 001°21'118.5
2018-Sep-13 18:00N 51°06' E 001°23'918.0
2018-Sep-13 17:30N 51°02' E 001°35'818.6
2018-Sep-13 17:03N 50°58' E 001°47'119.0
2018-Sep-13 17:00N 50°58' E 001°49'2 2.7
2018-Sep-13 16:26N 50°58' E 001°51'1 2.7
2018-Sep-13 16:04N 50°58' E 001°49'118.3
2018-Sep-13 16:00N 50°58' E 001°48'1019.4
2018-Sep-13 15:30N 51°02' E 001°34'919.5
2018-Sep-13 15:03N 51°07' E 001°22'118.8
2018-Sep-13 15:00N 51°07' E 001°21'1 0.6
2018-Sep-13 14:03N 51°07' E 001°20'0 8.3
2018-Sep-13 14:01N 51°07' E 001°21'816.9
2018-Sep-13 13:30N 51°03' E 001°33'818.2
2018-Sep-13 13:03N 50°59' E 001°43'117.1
2018-Sep-13 13:00N 50°58' E 001°45'4 3.3
2018-Sep-13 11:48N 50°58' E 001°51'2 7.0
2018-Sep-13 11:30N 50°58' E 001°48'715.6
2018-Sep-13 11:03N 50°58' E 001°37'118.2
2018-Sep-13 11:01N 50°59' E 001°35'1019.0
2018-Sep-13 10:31N 51°05' E 001°24'4 7.9
2018-Sep-13 10:03N 51°07' E 001°20'0 0.0
2018-Sep-13 09:54N 51°07' E 001°20'0 0.0
2018-Sep-13 09:27N 51°07' E 001°20'2 6.0
2018-Sep-13 09:04N 51°07' E 001°24'119.8
2018-Sep-13 09:01N 51°07' E 001°25'1019.1
2018-Sep-13 08:30N 51°01' E 001°38'818.4
2018-Sep-13 08:04N 50°58' E 001°50'0 8.9
2018-Sep-13 08:01N 50°58' E 001°51'0 0.5
2018-Sep-13 07:30N 50°58' E 001°51'0 0.1
2018-Sep-13 07:03N 50°58' E 001°51'0 2.4
2018-Sep-13 07:00N 50°58' E 001°51'714.2
2018-Sep-13 06:30N 50°59' E 001°40'816.8
2018-Sep-13 06:03N 51°02' E 001°29'117.7
2018-Sep-13 06:00N 51°03' E 001°28'713.1
2018-Sep-13 05:30N 51°07' E 001°20'0 0.0
2018-Sep-13 05:03N 51°07' E 001°20'0 0.0
2018-Sep-13 05:00N 51°07' E 001°20'0 0.0
2018-Sep-13 04:28N 51°07' E 001°20'2 5.6
2018-Sep-13 04:03N 51°07' E 001°24'115.6
2018-Sep-13 04:00N 51°06' E 001°25'816.5
2018-Sep-13 03:30N 51°02' E 001°36'716.1
2018-Sep-13 03:03N 50°58' E 001°45'114.9
2018-Sep-13 03:01N 50°58' E 001°47'3 6.1
2018-Sep-13 02:30N 50°58' E 001°51'0 0.0
2018-Sep-13 02:03N 50°58' E 001°51'0 0.0
2018-Sep-13 02:00N 50°58' E 001°51'0 0.0
2018-Sep-13 01:29N 50°58' E 001°51'512.2
2018-Sep-13 01:03N 50°58' E 001°43'119.0
2018-Sep-13 01:00N 50°59' E 001°41'918.1
2018-Sep-13 00:30N 51°03' E 001°29'715.6
2018-Sep-13 00:03N 51°07' E 001°20'0 0.2
2018-Sep-13 00:00N 51°07' E 001°20'0 0.0
2018-Sep-12 23:30N 51°07' E 001°20'0 0.0
2018-Sep-12 23:03N 51°07' E 001°20'0 0.0
2018-Sep-12 23:00N 51°07' E 001°20'0 0.0
2018-Sep-12 22:30N 51°07' E 001°20'0 0.0
2018-Sep-12 22:03N 51°07' E 001°20'0 0.0
2018-Sep-12 22:00N 51°07' E 001°20'0 0.0
2018-Sep-12 21:30N 51°07' E 001°20'0 0.0
2018-Sep-12 21:03N 51°07' E 001°20'0 0.0
2018-Sep-12 21:00N 51°07' E 001°20'0 0.0
2018-Sep-12 20:29N 51°07' E 001°20'0 0.0
2018-Sep-12 20:02N 51°07' E 001°20'0 0.0
2018-Sep-12 20:00N 51°07' E 001°20'0 0.0
2018-Sep-12 19:28N 51°07' E 001°20'0 0.0
2018-Sep-12 19:01N 51°07' E 001°20'0 0.0
2018-Sep-12 18:58N 51°07' E 001°20'4 9.2
2018-Sep-12 18:30N 51°06' E 001°26'919.4
2018-Sep-12 18:03N 51°01' E 001°38'119.3
2018-Sep-12 18:00N 51°01' E 001°39'815.4
2018-Sep-12 17:30N 50°58' E 001°51'0 0.2
2018-Sep-12 16:53N 50°58' E 001°51'0 0.0
2018-Sep-12 16:30N 50°58' E 001°51'613.3
2018-Sep-12 16:03N 50°58' E 001°41'119.3
2018-Sep-12 15:59N 50°59' E 001°40'918.8
2018-Sep-12 15:30N 51°04' E 001°28'613.1
2018-Sep-12 15:03N 51°07' E 001°20'0 0.0
2018-Sep-12 15:00N 51°07' E 001°20'0 0.0
2018-Sep-12 14:29N 51°07' E 001°20'3 5.4
2018-Sep-12 14:01N 51°07' E 001°24'918.2
2018-Sep-12 13:31N 51°02' E 001°36'816.8
2018-Sep-12 13:04N 50°58' E 001°47'115.9
2018-Sep-12 13:00N 50°58' E 001°48'2 3.7
2018-Sep-12 12:30N 50°58' E 001°51'0 0.0
2018-Sep-12 11:56N 50°58' E 001°51'511.6
2018-Sep-12 11:30N 50°58' E 001°43'818.2
2018-Sep-12 11:03N 51°02' E 001°32'119.1
2018-Sep-12 11:00N 51°02' E 001°30'816.3
2018-Sep-12 10:30N 51°07' E 001°20'0 0.8
2018-Sep-12 10:03N 51°07' E 001°20'0 0.0
2018-Sep-12 10:00N 51°07' E 001°20'0 0.0
2018-Sep-12 09:30N 51°07' E 001°20'613.9
2018-Sep-12 09:03N 51°05' E 001°29'116.7
2018-Sep-12 09:00N 51°04' E 001°30'918.3
2018-Sep-12 08:30N 50°59' E 001°42'612.8
2018-Sep-12 08:03N 50°58' E 001°51'0 0.0
2018-Sep-12 08:00N 50°58' E 001°51'0 0.0
2018-Sep-12 07:30N 50°58' E 001°51'0 0.0
2018-Sep-12 07:03N 50°58' E 001°51'0 1.9
2018-Sep-12 07:00N 50°58' E 001°51'714.2
2018-Sep-12 06:31N 50°59' E 001°40'818.6
2018-Sep-12 06:04N 51°03' E 001°29'119.5
2018-Sep-12 06:01N 51°04' E 001°28'611.2
2018-Sep-12 05:29N 51°07' E 001°20'0 0.0
2018-Sep-12 05:03N 51°07' E 001°20'0 0.0
2018-Sep-12 04:57N 51°07' E 001°20'0 0.0
2018-Sep-12 04:30N 51°07' E 001°20'2 4.8
2018-Sep-12 04:03N 51°07' E 001°23'117.5
2018-Sep-12 04:00N 51°06' E 001°25'918.3
2018-Sep-12 03:30N 51°01' E 001°37'816.9
2018-Sep-12 03:03N 50°58' E 001°48'116.7
2018-Sep-12 03:00N 50°58' E 001°49'1 2.9
2018-Sep-12 02:30N 50°58' E 001°51'0 0.0
2018-Sep-12 02:03N 50°58' E 001°51'0 0.0
2018-Sep-12 02:00N 50°58' E 001°51'4 8.0
2018-Sep-12 01:30N 50°58' E 001°45'919.7
2018-Sep-12 01:03N 51°02' E 001°33'119.3
2018-Sep-12 01:00N 51°03' E 001°32'917.2
2018-Sep-12 00:30N 51°07' E 001°20'0 0.0
2018-Sep-12 00:03N 51°07' E 001°20'0 0.0
2018-Sep-12 00:00N 51°07' E 001°20'510.5
2018-Sep-11 23:30N 51°06' E 001°28'818.1
2018-Sep-11 23:03N 51°02' E 001°39'118.7
2018-Sep-11 23:00N 51°01' E 001°40'815.2
2018-Sep-11 22:30N 50°58' E 001°51'0 0.2
2018-Sep-11 22:01N 50°58' E 001°51'0 0.0
2018-Sep-11 22:00N 50°58' E 001°51'4 9.2
2018-Sep-11 21:30N 50°58' E 001°44'817.7
2018-Sep-11 21:04N 51°01' E 001°32'119.2
2018-Sep-11 21:00N 51°02' E 001°31'916.8
2018-Sep-11 20:29N 51°07' E 001°20'0 0.0
2018-Sep-11 20:03N 51°07' E 001°20'0 0.0
2018-Sep-11 19:57N 51°07' E 001°20'3 6.5
2018-Sep-11 19:30N 51°07' E 001°25'817.7
2018-Sep-11 19:03N 51°02' E 001°35'119.9
2018-Sep-11 19:00N 51°02' E 001°36'918.7
2018-Sep-11 18:30N 50°58' E 001°50'1 2.4
2018-Sep-11 18:03N 50°58' E 001°52'0 0.0
2018-Sep-11 18:01N 50°58' E 001°52'0 0.0
2018-Sep-11 17:31N 50°58' E 001°52'0 0.0
2018-Sep-11 17:03N 50°58' E 001°52'0 0.0
2018-Sep-11 17:01N 50°58' E 001°52'0 0.0
2018-Sep-11 16:30N 50°58' E 001°52'0 0.0
2018-Sep-11 16:03N 50°58' E 001°52'0 0.0
2018-Sep-11 16:00N 50°58' E 001°52'0 0.0
2018-Sep-11 15:31N 50°58' E 001°52'0 0.0
2018-Sep-11 15:04N 50°58' E 001°52'0 0.0
2018-Sep-11 15:01N 50°58' E 001°52'0 0.0
2018-Sep-11 14:31N 50°58' E 001°52'0 0.0
2018-Sep-11 14:00N 50°58' E 001°52'0 0.0
2018-Sep-11 13:30N 50°58' E 001°52'0 0.2
2018-Sep-11 13:03N 50°58' E 001°51'0 0.9
2018-Sep-11 13:00N 50°58' E 001°51'0 0.2
2018-Sep-11 12:27N 50°58' E 001°52'0 0.0
2018-Sep-11 12:02N 50°58' E 001°52'0 0.4
2018-Sep-11 12:01N 50°58' E 001°52'815.0
2018-Sep-11 11:27N 50°59' E 001°39'819.2
2018-Sep-11 11:03N 51°03' E 001°28'118.5
2018-Sep-11 11:00N 51°04' E 001°27'610.2
2018-Sep-11 10:27N 51°07' E 001°20'0 0.0
2018-Sep-11 10:00N 51°07' E 001°20'1 1.1
2018-Sep-11 09:31N 51°07' E 001°21'613.7
2018-Sep-11 09:03N 51°05' E 001°30'118.3
2018-Sep-11 09:01N 51°05' E 001°31'918.4
2018-Sep-11 08:31N 50°59' E 001°42'512.0
2018-Sep-11 08:03N 50°58' E 001°51'0 0.0
2018-Sep-11 08:00N 50°58' E 001°51'0 0.0
2018-Sep-11 07:30N 50°58' E 001°51'0 0.5
2018-Sep-11 07:03N 50°58' E 001°51'0 7.6
2018-Sep-11 07:01N 50°58' E 001°50'816.0
2018-Sep-11 06:30N 50°60' E 001°38'818.5
2018-Sep-11 06:03N 51°05' E 001°27'118.3
2018-Sep-11 06:00N 51°05' E 001°26'4 7.8
2018-Sep-11 05:27N 51°07' E 001°20'0 0.0
2018-Sep-11 05:03N 51°07' E 001°20'0 0.0
2018-Sep-11 04:55N 51°07' E 001°20'1 1.6
2018-Sep-11 04:30N 51°07' E 001°21'614.3
2018-Sep-11 04:04N 51°05' E 001°30'118.4
2018-Sep-11 04:01N 51°04' E 001°32'918.3
2018-Sep-11 03:31N 50°59' E 001°43'511.3
2018-Sep-11 03:03N 50°58' E 001°52'0 0.4
2018-Sep-11 02:56N 50°58' E 001°52'0 0.0
2018-Sep-11 02:29N 50°58' E 001°52'0 0.3
2018-Sep-11 02:01N 50°58' E 001°51'0 5.6
2018-Sep-11 02:00N 50°58' E 001°51'917.5
2018-Sep-11 01:31N 50°59' E 001°38'919.0
2018-Sep-11 01:03N 51°05' E 001°27'120.4
2018-Sep-11 01:00N 51°05' E 001°26'4 5.5
2018-Sep-11 00:16N 51°07' E 001°20'0 0.0
2018-Sep-11 00:02N 51°07' E 001°20'0 1.1
2018-Sep-10 23:53N 51°07' E 001°20'4 9.7
2018-Sep-10 23:31N 51°08' E 001°26'715.2
2018-Sep-10 23:04N 51°07' E 001°37'117.7
2018-Sep-10 23:01N 51°06' E 001°37'917.9
2018-Sep-10 22:31N 50°58' E 001°45'4 9.6
2018-Sep-10 22:03N 50°58' E 001°52'0 0.0
2018-Sep-10 21:46N 50°58' E 001°52'0 0.0
2018-Sep-10 21:28N 50°58' E 001°52'0 0.0
2018-Sep-10 21:02N 50°58' E 001°52'0 1.2
2018-Sep-10 21:00N 50°58' E 001°52'815.0
2018-Sep-10 20:28N 50°58' E 001°39'717.7
2018-Sep-10 20:04N 51°02' E 001°30'119.2
2018-Sep-10 20:00N 51°03' E 001°29'713.6
2018-Sep-10 19:29N 51°07' E 001°20'0 0.0
2018-Sep-10 19:03N 51°07' E 001°20'0 0.0
2018-Sep-10 18:59N 51°07' E 001°20'1 1.8
2018-Sep-10 18:31N 51°07' E 001°21'818.6
2018-Sep-10 18:04N 51°05' E 001°34'119.1
2018-Sep-10 18:01N 51°04' E 001°35'918.7
2018-Sep-10 17:31N 50°58' E 001°47'3 5.8
2018-Sep-10 17:02N 50°58' E 001°51'0 0.0
2018-Sep-10 16:58N 50°58' E 001°51'0 0.0
2018-Sep-10 16:27N 50°58' E 001°51'512.6
2018-Sep-10 16:03N 50°58' E 001°43'118.7
2018-Sep-10 16:01N 50°58' E 001°42'918.9
2018-Sep-10 15:31N 51°03' E 001°29'715.1
2018-Sep-10 15:03N 51°07' E 001°20'0 0.0
2018-Sep-10 15:00N 51°07' E 001°20'0 0.1
2018-Sep-10 14:03N 51°07' E 001°20'0 1.8
2018-Sep-10 14:00N 51°07' E 001°20'815.7
2018-Sep-10 13:30N 51°04' E 001°32'817.4
2018-Sep-10 13:03N 50°60' E 001°42'117.2
2018-Sep-10 13:00N 50°59' E 001°43'5 9.9
2018-Sep-10 12:29N 50°58' E 001°51'0 0.0
2018-Sep-10 11:50N 50°58' E 001°51'1 3.9
2018-Sep-10 11:31N 50°58' E 001°49'916.0
2018-Sep-10 10:57N 51°01' E 001°36'919.3
2018-Sep-10 10:30N 51°06' E 001°24'3 6.7
2018-Sep-10 10:03N 51°07' E 001°20'0 0.0
2018-Sep-10 10:00N 51°07' E 001°20'0 0.0
2018-Sep-10 09:30N 51°07' E 001°20'511.4
2018-Sep-10 09:03N 51°06' E 001°28'119.2
2018-Sep-10 09:00N 51°05' E 001°29'1019.1
2018-Sep-10 08:30N 50°60' E 001°41'613.7
2018-Sep-10 08:03N 50°58' E 001°51'0 1.3
2018-Sep-10 08:00N 50°58' E 001°51'0 0.0
2018-Sep-10 07:29N 50°58' E 001°51'0 0.0
2018-Sep-10 07:03N 50°58' E 001°51'0 0.0
2018-Sep-10 07:00N 50°58' E 001°51'510.9
2018-Sep-10 06:30N 50°58' E 001°42'818.3
2018-Sep-10 06:03N 51°02' E 001°31'119.4
2018-Sep-10 06:00N 51°03' E 001°30'814.5
2018-Sep-10 05:29N 51°07' E 001°20'0 0.0
2018-Sep-10 05:03N 51°07' E 001°20'0 0.0
2018-Sep-10 04:59N 51°07' E 001°20'0 0.0
2018-Sep-10 04:29N 51°07' E 001°20'1 2.8
2018-Sep-10 04:03N 51°07' E 001°22'1 9.8
2018-Sep-10 04:00N 51°07' E 001°23'917.6
2018-Sep-10 03:30N 51°03' E 001°35'817.0
2018-Sep-10 03:03N 50°58' E 001°45'116.1
2018-Sep-10 03:01N 50°58' E 001°46'3 6.8
2018-Sep-10 02:30N 50°58' E 001°51'0 0.0
2018-Sep-10 02:03N 50°58' E 001°51'0 0.0
2018-Sep-10 02:00N 50°58' E 001°51'0 0.0
2018-Sep-10 01:30N 50°58' E 001°51'3 7.8
2018-Sep-10 01:03N 50°58' E 001°46'118.8
2018-Sep-10 01:01N 50°58' E 001°44'1020.1
2018-Sep-10 00:30N 51°02' E 001°30'817.3
2018-Sep-10 00:03N 51°07' E 001°20'0 4.4
2018-Sep-10 00:01N 51°07' E 001°20'0 0.0
2018-Sep-09 23:31N 51°07' E 001°20'1 3.2
2018-Sep-09 23:03N 51°07' E 001°22'114.8
2018-Sep-09 23:00N 51°07' E 001°24'815.6
2018-Sep-09 22:30N 51°05' E 001°36'716.6
2018-Sep-09 22:03N 50°59' E 001°42'114.8
2018-Sep-09 22:00N 50°59' E 001°43'5 8.5
2018-Sep-09 21:24N 50°58' E 001°51'0 0.0
2018-Sep-09 21:03N 50°58' E 001°51'0 0.0
2018-Sep-09 20:59N 50°58' E 001°51'0 0.3
2018-Sep-09 20:30N 50°58' E 001°51'715.7
2018-Sep-09 20:03N 50°58' E 001°40'116.8
2018-Sep-09 20:00N 50°58' E 001°38'917.6
2018-Sep-09 19:30N 51°03' E 001°27'613.4
2018-Sep-09 19:03N 51°07' E 001°20'0 0.0
2018-Sep-09 19:00N 51°07' E 001°20'0 0.0
2018-Sep-09 18:30N 51°07' E 001°20'0 0.2
2018-Sep-09 18:03N 51°07' E 001°20'0 5.4
2018-Sep-09 18:01N 51°07' E 001°21'918.2
2018-Sep-09 17:30N 51°04' E 001°34'919.8
2018-Sep-09 17:04N 50°58' E 001°45'119.2
2018-Sep-09 17:01N 50°58' E 001°46'3 5.3
2018-Sep-09 16:28N 50°58' E 001°51'0 0.0
2018-Sep-09 16:03N 50°58' E 001°51'0 0.0
2018-Sep-09 16:01N 50°58' E 001°51'814.0
2018-Sep-09 15:28N 50°59' E 001°39'819.7
2018-Sep-09 15:04N 51°04' E 001°29'119.9
2018-Sep-09 15:01N 51°04' E 001°27'510.6
2018-Sep-09 14:30N 51°07' E 001°20'0 0.0
2018-Sep-09 14:00N 51°07' E 001°20'5 9.5
2018-Sep-09 13:30N 51°06' E 001°27'818.6
2018-Sep-09 13:03N 51°01' E 001°38'118.3
2018-Sep-09 13:00N 51°00' E 001°39'815.4
2018-Sep-09 12:30N 50°58' E 001°51'0 0.4
2018-Sep-09 12:03N 50°58' E 001°51'0 0.0
2018-Sep-09 12:01N 50°58' E 001°51'0 0.4
2018-Sep-09 11:30N 50°58' E 001°51'818.2
2018-Sep-09 11:03N 51°00' E 001°38'119.9
2018-Sep-09 11:00N 51°00' E 001°37'1019.7
2018-Sep-09 10:30N 51°06' E 001°24'3 6.2
2018-Sep-09 10:03N 51°07' E 001°20'0 0.0
2018-Sep-09 10:00N 51°07' E 001°20'0 0.0
2018-Sep-09 09:30N 51°07' E 001°20'511.7
2018-Sep-09 09:03N 51°06' E 001°28'119.9
2018-Sep-09 09:00N 51°06' E 001°30'1019.0
2018-Sep-09 08:30N 50°60' E 001°41'714.8
2018-Sep-09 08:03N 50°58' E 001°51'0 1.1
2018-Sep-09 08:01N 50°58' E 001°51'0 0.1
2018-Sep-09 07:30N 50°58' E 001°51'0 1.0
2018-Sep-09 07:03N 50°58' E 001°51'0 9.9
2018-Sep-09 07:00N 50°58' E 001°50'816.8
2018-Sep-09 06:30N 50°59' E 001°37'919.2
2018-Sep-09 06:03N 51°05' E 001°26'118.9
2018-Sep-09 06:00N 51°05' E 001°25'4 7.6
2018-Sep-09 05:30N 51°07' E 001°20'0 0.0
2018-Sep-09 05:03N 51°07' E 001°20'0 0.0
2018-Sep-09 04:59N 51°07' E 001°20'0 0.0
2018-Sep-09 04:30N 51°07' E 001°20'0 0.8
2018-Sep-09 04:03N 51°07' E 001°21'114.0
2018-Sep-09 04:00N 51°07' E 001°22'1019.2
2018-Sep-09 03:30N 51°03' E 001°35'918.9
2018-Sep-09 03:03N 50°58' E 001°47'120.1
2018-Sep-09 03:00N 50°58' E 001°48'  
Track history (hours):
 
Tides and Currents Weather Stations Pressure Air Temp Water Temp Dewpoint Dewpoint Depression Visibility Wind Speed Wind Dir Waves Ship Positions

Pride Of Kent

Operator: P & O Ferries

Last reported at 2018-Sep-19 03:03 UTC. Time now 2018-Sep-19 03:08 UTC.
Position N 50°60' E 001°42'.

Length 180 m; draft 6 m.

Type: Passenger vessel. MMSI: 232009000.

Date/timePositionNaut miles runAvg speedWind from/ knotsBaromVisibWave heightAir tempDewpointWater temp
2018-Sep-19 03:03N 50°60' E 001°42'119.8
2018-Sep-19 03:00N 50°59' E 001°43'510.3
2018-Sep-19 02:30N 50°58' E 001°51'0 0.0
2018-Sep-19 02:02N 50°58' E 001°51'0 0.0
2018-Sep-19 01:58N 50°58' E 001°51'0 0.9
2018-Sep-19 01:30N 50°58' E 001°50'510.8
2018-Sep-19 01:03N 50°58' E 001°43'0 4.6
2018-Sep-19 01:00N 50°58' E 001°42'5 9.6
2018-Sep-19 00:30N 51°00' E 001°35'919.2
2018-Sep-19 00:03N 51°06' E 001°25'119.4
2018-Sep-19 00:00N 51°06' E 001°24'3 4.8
2018-Sep-18 23:28N 51°07' E 001°20'0 0.0
2018-Sep-18 23:03N 51°07' E 001°20'0 0.0
2018-Sep-18 23:00N 51°07' E 001°20'0 0.0
2018-Sep-18 22:21N 51°07' E 001°20'0 0.0
2018-Sep-18 22:03N 51°07' E 001°20'0 0.0
2018-Sep-18 22:00N 51°07' E 001°20'0 0.0
2018-Sep-18 21:30N 51°07' E 001°20'0 0.0
2018-Sep-18 21:03N 51°07' E 001°20'0 0.1
2018-Sep-18 21:00N 51°07' E 001°20'0 0.4
2018-Sep-18 20:30N 51°07' E 001°20'817.2
2018-Sep-18 20:03N 51°04' E 001°32'118.9
2018-Sep-18 20:00N 51°04' E 001°33'918.4
2018-Sep-18 19:30N 50°58' E 001°45'4 9.8
2018-Sep-18 19:03N 50°58' E 001°52'0 0.0
2018-Sep-18 19:00N 50°58' E 001°52'0 0.0
2018-Sep-18 18:29N 50°58' E 001°52'1 1.8
2018-Sep-18 18:02N 50°58' E 001°50'011.0
2018-Sep-18 18:00N 50°58' E 001°50'916.5
2018-Sep-18 17:29N 51°00' E 001°36'819.0
2018-Sep-18 17:04N 51°05' E 001°26'119.4
2018-Sep-18 17:01N 51°05' E 001°25'4 4.7
2018-Sep-18 16:14N 51°07' E 001°20'0 0.5
2018-Sep-18 15:55N 51°07' E 001°20'511.0
2018-Sep-18 15:30N 51°08' E 001°27'512.0
2018-Sep-18 15:04N 51°05' E 001°35'118.2
2018-Sep-18 15:01N 51°04' E 001°36'1111.9
2018-Sep-18 14:03N 50°58' E 001°51'0 0.0
2018-Sep-18 14:00N 50°58' E 001°51'0 0.3
2018-Sep-18 13:27N 50°58' E 001°51'616.0
2018-Sep-18 13:04N 50°58' E 001°41'118.8
2018-Sep-18 13:00N 50°59' E 001°39'918.2
2018-Sep-18 12:31N 51°04' E 001°28'6 4.6
2018-Sep-18 11:14N 51°07' E 001°20'0 0.8
2018-Sep-18 11:02N 51°07' E 001°20'0 1.4
2018-Sep-18 11:00N 51°07' E 001°20'2 4.9
2018-Sep-18 10:30N 51°07' E 001°24'0 1.1
2018-Sep-18 10:03N 51°08' E 001°25'0 0.7
2018-Sep-18 10:01N 51°08' E 001°25'1 1.3
2018-Sep-18 09:30N 51°08' E 001°26'3 6.3
2018-Sep-18 09:03N 51°06' E 001°29'113.2
2018-Sep-18 09:01N 51°06' E 001°30'816.0
2018-Sep-18 08:30N 51°01' E 001°40'716.1
2018-Sep-18 08:03N 50°58' E 001°50'0 4.9
2018-Sep-18 08:00N 50°58' E 001°51'0 0.3
2018-Sep-18 07:30N 50°58' E 001°51'0 0.0
2018-Sep-18 07:03N 50°58' E 001°51'0 0.0
2018-Sep-18 07:00N 50°58' E 001°51'612.2
2018-Sep-18 06:30N 50°59' E 001°41'818.9
2018-Sep-18 06:03N 51°03' E 001°30'118.4
2018-Sep-18 06:00N 51°04' E 001°29'713.3
2018-Sep-18 05:30N 51°07' E 001°20'0 0.0
2018-Sep-18 05:03N 51°07' E 001°20'0 0.0
2018-Sep-18 04:59N 51°07' E 001°20'0 0.0
2018-Sep-18 04:30N 51°07' E 001°20'3 7.7
2018-Sep-18 04:04N 51°06' E 001°25'118.2
2018-Sep-18 04:01N 51°06' E 001°27'918.6
2018-Sep-18 03:30N 51°01' E 001°39'716.6
2018-Sep-18 03:03N 50°58' E 001°50'0 8.3
2018-Sep-18 03:01N 50°58' E 001°51'0 0.4
2018-Sep-18 02:30N 50°58' E 001°51'0 0.0
2018-Sep-18 02:01N 50°58' E 001°51'0 0.0
2018-Sep-18 02:00N 50°58' E 001°51'0 0.0
2018-Sep-18 01:30N 50°58' E 001°51'3 7.2
2018-Sep-18 01:04N 50°58' E 001°46'118.0
2018-Sep-18 01:00N 50°58' E 001°45'917.2
2018-Sep-18 00:30N 51°02' E 001°32'817.3
2018-Sep-18 00:03N 51°07' E 001°23'116.0
2018-Sep-18 00:01N 51°07' E 001°22'1 1.9
2018-Sep-17 23:30N 51°07' E 001°20'0 0.3
2018-Sep-17 23:03N 51°07' E 001°20'0 1.6
2018-Sep-17 23:00N 51°07' E 001°20'714.9
2018-Sep-17 22:30N 51°04' E 001°31'817.9
2018-Sep-17 22:03N 50°60' E 001°42'118.1
2018-Sep-17 22:00N 50°59' E 001°43'510.9
2018-Sep-17 21:30N 50°58' E 001°51'0 0.0
2018-Sep-17 21:03N 50°58' E 001°51'0 0.0
2018-Sep-17 21:01N 50°58' E 001°51'0 0.5
2018-Sep-17 20:30N 50°58' E 001°51'715.3
2018-Sep-17 20:03N 50°59' E 001°40'118.2
2018-Sep-17 20:00N 50°59' E 001°39'917.8
2018-Sep-17 19:30N 51°04' E 001°27'511.6
2018-Sep-17 19:03N 51°07' E 001°20'0 0.0
2018-Sep-17 19:00N 51°07' E 001°20'0 0.0
2018-Sep-17 18:30N 51°07' E 001°20'1 3.3
2018-Sep-17 18:03N 51°07' E 001°22'117.5
2018-Sep-17 18:01N 51°07' E 001°24'918.6
2018-Sep-17 17:30N 51°02' E 001°36'817.5
2018-Sep-17 17:03N 50°58' E 001°47'117.1
2018-Sep-17 17:00N 50°58' E 001°48'2 3.1
2018-Sep-17 16:30N 50°58' E 001°51'0 0.0
2018-Sep-17 16:03N 50°58' E 001°51'0 0.9
2018-Sep-17 15:59N 50°58' E 001°51'816.6
2018-Sep-17 15:30N 50°60' E 001°38'919.2
2018-Sep-17 15:03N 51°04' E 001°27'119.0
2018-Sep-17 15:00N 51°05' E 001°26'4 8.7
2018-Sep-17 14:30N 51°07' E 001°20'0 0.0
2018-Sep-17 14:00N 51°07' E 001°20'5 9.3
2018-Sep-17 13:31N 51°06' E 001°27'919.2
2018-Sep-17 13:04N 51°01' E 001°38'119.4
2018-Sep-17 13:01N 51°00' E 001°39'815.2
2018-Sep-17 12:30N 50°58' E 001°51'0 0.4
2018-Sep-17 12:03N 50°58' E 001°51'0 0.0
2018-Sep-17 12:00N 50°58' E 001°51'0 0.3
2018-Sep-17 11:30N 50°58' E 001°51'715.9
2018-Sep-17 11:03N 50°59' E 001°39'118.0
2018-Sep-17 11:01N 50°59' E 001°38'918.6
2018-Sep-17 10:30N 51°04' E 001°26'5 9.5
2018-Sep-17 09:59N 51°07' E 001°20'0 0.0
2018-Sep-17 09:29N 51°07' E 001°20'0 0.2
2018-Sep-17 09:03N 51°07' E 001°20'0 2.3
2018-Sep-17 09:00N 51°07' E 001°20'917.6
2018-Sep-17 08:31N 51°04' E 001°33'919.0
2018-Sep-17 08:04N 50°58' E 001°44'119.0
2018-Sep-17 08:01N 50°58' E 001°45'4 7.5
2018-Sep-17 07:30N 50°58' E 001°51'0 0.0
2018-Sep-17 07:02N 50°58' E 001°51'0 0.0
2018-Sep-17 06:58N 50°58' E 001°51'3 7.6
2018-Sep-17 06:30N 50°58' E 001°46'817.4
2018-Sep-17 06:03N 51°00' E 001°34'117.6
2018-Sep-17 05:59N 51°01' E 001°32'817.8
2018-Sep-17 05:30N 51°07' E 001°22'1 3.2
2018-Sep-17 05:03N 51°07' E 001°20'0 0.0
2018-Sep-17 05:00N 51°07' E 001°20'0 0.0
2018-Sep-17 04:30N 51°07' E 001°20'2 4.4
2018-Sep-17 04:04N 51°07' E 001°23'116.8
2018-Sep-17 04:00N 51°07' E 001°24'918.1
2018-Sep-17 03:30N 51°02' E 001°37'714.7
2018-Sep-17 03:03N 50°58' E 001°45'110.4
2018-Sep-17 03:00N 50°58' E 001°46'3 6.4
2018-Sep-17 02:30N 50°58' E 001°51'0 0.0
2018-Sep-17 02:03N 50°58' E 001°51'0 0.0
2018-Sep-17 02:01N 50°58' E 001°51'0 0.0
2018-Sep-17 01:30N 50°58' E 001°51'3 5.9
2018-Sep-17 01:03N 50°58' E 001°47'116.6
2018-Sep-17 01:00N 50°58' E 001°46'816.8
2018-Sep-17 00:30N 51°02' E 001°34'817.3
2018-Sep-17 00:03N 51°06' E 001°23'117.0
2018-Sep-17 00:00N 51°06' E 001°22'2 3.6
2018-Sep-16 23:30N 51°07' E 001°20'0 0.0
2018-Sep-16 23:03N 51°07' E 001°20'0 1.5
2018-Sep-16 22:58N 51°07' E 001°20'613.6
2018-Sep-16 22:30N 51°05' E 001°29'817.0
2018-Sep-16 22:03N 51°01' E 001°39'117.0
2018-Sep-16 22:00N 51°00' E 001°40'713.5
2018-Sep-16 21:30N 50°58' E 001°51'0 0.4
2018-Sep-16 21:03N 50°58' E 001°51'0 0.0
2018-Sep-16 21:00N 50°58' E 001°51'0 0.0
2018-Sep-16 20:30N 50°58' E 001°51'511.9
2018-Sep-16 20:03N 50°58' E 001°43'117.7
2018-Sep-16 20:00N 50°59' E 001°41'917.5
2018-Sep-16 19:30N 51°04' E 001°30'716.0
2018-Sep-16 19:03N 51°07' E 001°20'0 0.1
2018-Sep-16 19:00N 51°07' E 001°20'0 0.0
2018-Sep-16 18:30N 51°07' E 001°20'3 5.7
2018-Sep-16 18:03N 51°07' E 001°24'117.8
2018-Sep-16 18:00N 51°06' E 001°25'918.6
2018-Sep-16 17:31N 51°02' E 001°38'816.9
2018-Sep-16 17:03N 50°58' E 001°49'116.0
2018-Sep-16 17:00N 50°58' E 001°50'1 1.2
2018-Sep-16 16:30N 50°58' E 001°51'0 0.0
2018-Sep-16 16:03N 50°58' E 001°51'0 0.0
2018-Sep-16 16:00N 50°58' E 001°51'714.6
2018-Sep-16 15:30N 50°59' E 001°39'919.7
2018-Sep-16 15:03N 51°04' E 001°28'119.6
2018-Sep-16 15:00N 51°05' E 001°27'5 9.3
2018-Sep-16 14:28N 51°07' E 001°20'5 5.2
2018-Sep-16 13:30N 51°05' E 001°27'919.2
2018-Sep-16 13:03N 51°01' E 001°39'119.5
2018-Sep-16 13:00N 51°00' E 001°40'713.9
2018-Sep-16 12:30N 50°58' E 001°51'0 0.4
2018-Sep-16 12:03N 50°58' E 001°51'0 0.0
2018-Sep-16 12:00N 50°58' E 001°51'0 0.3
2018-Sep-16 11:30N 50°58' E 001°51'715.8
2018-Sep-16 11:03N 50°58' E 001°40'118.1
2018-Sep-16 11:00N 50°59' E 001°38'917.9
2018-Sep-16 10:31N 51°03' E 001°26'612.7
2018-Sep-16 10:03N 51°07' E 001°20'0 0.0
2018-Sep-16 10:00N 51°07' E 001°20'0 0.0
2018-Sep-16 09:30N 51°07' E 001°20'0 0.2
2018-Sep-16 09:04N 51°07' E 001°20'0 9.1
2018-Sep-16 09:00N 51°07' E 001°21'919.0
2018-Sep-16 08:30N 51°03' E 001°34'919.4
2018-Sep-16 08:03N 50°58' E 001°46'119.2
2018-Sep-16 08:00N 50°58' E 001°47'2 4.7
2018-Sep-16 07:30N 50°58' E 001°51'0 0.0
2018-Sep-16 07:03N 50°58' E 001°51'0 0.1
2018-Sep-16 07:00N 50°58' E 001°51'714.9
2018-Sep-16 06:30N 50°59' E 001°40'919.0
2018-Sep-16 06:03N 51°04' E 001°29'119.2
2018-Sep-16 06:00N 51°05' E 001°27'5 8.5
2018-Sep-16 05:23N 51°07' E 001°20'0 0.0
2018-Sep-16 04:57N 51°07' E 001°20'0 0.0
2018-Sep-16 04:30N 51°07' E 001°20'0 0.0
2018-Sep-16 04:00N 51°07' E 001°20'0 0.0
2018-Sep-16 03:24N 51°07' E 001°20'0 0.0
2018-Sep-16 03:02N 51°07' E 001°20'0 0.0
2018-Sep-16 02:35N 51°07' E 001°20'0 0.0
2018-Sep-16 02:29N 51°07' E 001°20'0 0.0
2018-Sep-16 01:59N 51°07' E 001°20'0 0.0
2018-Sep-16 01:30N 51°07' E 001°20'0 0.0
2018-Sep-16 01:01N 51°07' E 001°20'0 0.0
2018-Sep-16 00:44N 51°07' E 001°20'0 0.0
2018-Sep-16 00:27N 51°07' E 001°20'0 0.0
2018-Sep-15 23:56N 51°07' E 001°20'0 0.0
2018-Sep-15 23:30N 51°07' E 001°20'0 0.0
2018-Sep-15 23:00N 51°07' E 001°20'0 0.0
2018-Sep-15 22:28N 51°07' E 001°20'0 0.0
2018-Sep-15 22:00N 51°07' E 001°20'0 0.0
2018-Sep-15 21:26N 51°07' E 001°20'0 0.0
2018-Sep-15 20:58N 51°07' E 001°20'0 0.0
2018-Sep-15 20:24N 51°07' E 001°20'0 0.0
2018-Sep-15 19:54N 51°07' E 001°20'0 0.0
2018-Sep-15 18:42N 51°07' E 001°20'0 0.0
2018-Sep-15 18:27N 51°07' E 001°20'3 8.1
2018-Sep-15 18:03N 51°07' E 001°25'118.3
2018-Sep-15 18:00N 51°07' E 001°27'918.4
2018-Sep-15 17:30N 51°01' E 001°38'817.0
2018-Sep-15 17:03N 50°58' E 001°50'113.0
2018-Sep-15 17:00N 50°58' E 001°51'0 0.3
2018-Sep-15 15:58N 50°58' E 001°51'613.6
2018-Sep-15 15:30N 50°59' E 001°41'1019.9
2018-Sep-15 15:00N 51°04' E 001°27'6 6.1
2018-Sep-15 14:03N 51°07' E 001°20'0 0.0
2018-Sep-15 14:00N 51°07' E 001°20'3 6.8
2018-Sep-15 13:30N 51°06' E 001°25'919.3
2018-Sep-15 13:03N 51°02' E 001°37'119.2
2018-Sep-15 13:01N 51°01' E 001°38'816.6
2018-Sep-15 12:30N 50°58' E 001°51'0 0.7
2018-Sep-15 12:03N 50°58' E 001°51'0 0.0
2018-Sep-15 12:00N 50°58' E 001°51'0 0.0
2018-Sep-15 11:30N 50°58' E 001°51'613.1
2018-Sep-15 11:03N 50°59' E 001°42'117.8
2018-Sep-15 11:00N 50°59' E 001°40'918.5
2018-Sep-15 10:30N 51°04' E 001°28'613.5
2018-Sep-15 10:03N 51°07' E 001°20'0 0.0
2018-Sep-15 09:58N 51°07' E 001°20'0 0.0
2018-Sep-15 09:30N 51°07' E 001°20'1 1.8
2018-Sep-15 09:03N 51°07' E 001°21'119.1
2018-Sep-15 09:00N 51°07' E 001°23'918.8
2018-Sep-15 08:30N 51°03' E 001°36'818.7
2018-Sep-15 08:03N 50°58' E 001°47'119.5
2018-Sep-15 08:00N 50°58' E 001°49'1 2.8
2018-Sep-15 07:30N 50°58' E 001°51'0 0.0
2018-Sep-15 07:03N 50°58' E 001°51'0 1.9
2018-Sep-15 07:00N 50°58' E 001°51'613.0
2018-Sep-15 06:30N 50°58' E 001°41'716.6
2018-Sep-15 06:03N 51°02' E 001°30'110.8
2018-Sep-15 06:00N 51°02' E 001°30'815.0
2018-Sep-15 05:29N 51°07' E 001°20'0 0.0
2018-Sep-15 05:03N 51°07' E 001°20'0 0.0
2018-Sep-15 05:00N 51°07' E 001°20'0 0.0
2018-Sep-15 04:30N 51°07' E 001°20'4 8.1
2018-Sep-15 04:03N 51°06' E 001°25'116.6
2018-Sep-15 04:00N 51°06' E 001°27'817.0
2018-Sep-15 03:30N 51°01' E 001°38'715.4
2018-Sep-15 03:03N 50°58' E 001°48'115.3
2018-Sep-15 03:00N 50°58' E 001°49'1 2.0
2018-Sep-15 02:25N 50°58' E 001°51'0 0.0
2018-Sep-15 02:03N 50°58' E 001°51'0 0.0
2018-Sep-15 01:59N 50°58' E 001°51'0 0.0
2018-Sep-15 01:30N 50°58' E 001°51'4 8.3
2018-Sep-15 01:03N 50°58' E 001°45'118.9
2018-Sep-15 01:00N 50°58' E 001°44'917.8
2018-Sep-15 00:30N 51°02' E 001°31'817.1
2018-Sep-15 00:03N 51°06' E 001°21'114.6
2018-Sep-15 00:00N 51°07' E 001°20'1 1.5
2018-Sep-14 23:30N 51°07' E 001°20'0 0.3
2018-Sep-14 23:03N 51°07' E 001°20'0 1.1
2018-Sep-14 23:01N 51°07' E 001°20'714.7
2018-Sep-14 22:30N 51°04' E 001°31'817.1
2018-Sep-14 22:03N 50°60' E 001°41'117.5
2018-Sep-14 22:00N 50°59' E 001°42'611.3
2018-Sep-14 21:30N 50°58' E 001°51'0 0.0
2018-Sep-14 21:03N 50°58' E 001°51'0 0.0
2018-Sep-14 21:00N 50°58' E 001°51'0 0.4
2018-Sep-14 20:24N 50°58' E 001°51'514.7
2018-Sep-14 20:03N 50°58' E 001°43'117.2
2018-Sep-14 20:00N 50°59' E 001°41'918.1
2018-Sep-14 19:30N 51°03' E 001°29'715.3
2018-Sep-14 19:03N 51°07' E 001°20'0 0.0
2018-Sep-14 18:52N 51°07' E 001°20'0 0.0
2018-Sep-14 18:30N 51°07' E 001°20'1 3.1
2018-Sep-14 18:03N 51°07' E 001°22'117.7
2018-Sep-14 18:00N 51°07' E 001°24'918.0
2018-Sep-14 17:30N 51°02' E 001°36'817.5
2018-Sep-14 17:03N 50°58' E 001°46'117.5
2018-Sep-14 17:00N 50°58' E 001°48'2 3.6
2018-Sep-14 16:28N 50°58' E 001°51'1 2.4
2018-Sep-14 16:03N 50°58' E 001°49'117.7
2018-Sep-14 16:01N 50°58' E 001°48'1019.7
2018-Sep-14 15:29N 51°01' E 001°32'818.3
2018-Sep-14 15:03N 51°06' E 001°23'119.9
2018-Sep-14 15:01N 51°06' E 001°21'2 2.9
2018-Sep-14 14:29N 51°07' E 001°20'0 0.2
2018-Sep-14 14:00N 51°07' E 001°20'815.8
2018-Sep-14 13:31N 51°06' E 001°32'818.8
2018-Sep-14 13:03N 51°00' E 001°42'118.6
2018-Sep-14 13:00N 50°59' E 001°43'510.0
2018-Sep-14 12:29N 50°58' E 001°51'0 0.0
2018-Sep-14 12:03N 50°58' E 001°51'0 0.0
2018-Sep-14 12:00N 50°58' E 001°51'0 0.0
2018-Sep-14 11:29N 50°58' E 001°51'614.5
2018-Sep-14 11:03N 50°58' E 001°41'117.4
2018-Sep-14 10:59N 50°59' E 001°39'918.3
2018-Sep-14 10:30N 51°02' E 001°27'714.2
2018-Sep-14 10:03N 51°07' E 001°20'0 0.0
2018-Sep-14 10:01N 51°07' E 001°20'0 0.0
2018-Sep-14 09:29N 51°07' E 001°20'0 0.3
2018-Sep-14 09:04N 51°07' E 001°20'0 7.6
2018-Sep-14 09:00N 51°07' E 001°21'918.6
2018-Sep-14 08:31N 51°03' E 001°34'919.3
2018-Sep-14 08:03N 50°58' E 001°45'119.6
2018-Sep-14 08:00N 50°58' E 001°47'3 5.4
2018-Sep-14 07:30N 50°58' E 001°51'0 0.0
2018-Sep-14 07:03N 50°58' E 001°51'0 0.0
2018-Sep-14 07:00N 50°58' E 001°51'510.3
2018-Sep-14 06:31N 50°58' E 001°43'818.6
2018-Sep-14 06:03N 51°02' E 001°31'119.1
2018-Sep-14 06:00N 51°02' E 001°30'815.4
2018-Sep-14 05:30N 51°07' E 001°20'0 0.0
2018-Sep-14 05:02N 51°07' E 001°20'0 0.0
2018-Sep-14 05:00N 51°07' E 001°20'0 0.0
2018-Sep-14 04:30N 51°07' E 001°20'1 2.6
2018-Sep-14 04:04N 51°07' E 001°22'115.3
2018-Sep-14 04:01N 51°07' E 001°23'816.6
2018-Sep-14 03:31N 51°03' E 001°34'716.1
2018-Sep-14 03:04N 50°59' E 001°44'115.8
2018-Sep-14 03:00N 50°58' E 001°45'4 7.4
2018-Sep-14 02:30N 50°58' E 001°51'0 0.0
2018-Sep-14 02:02N 50°58' E 001°51'0 0.0
2018-Sep-14 02:00N 50°58' E 001°51'0 0.0
2018-Sep-14 01:27N 50°58' E 001°51'4 9.7
2018-Sep-14 01:03N 50°58' E 001°45'121.0
2018-Sep-14 01:00N 50°58' E 001°43'917.9
2018-Sep-14 00:30N 51°02' E 001°30'817.5
2018-Sep-14 00:03N 51°06' E 001°20'112.4
2018-Sep-14 00:00N 51°07' E 001°20'1 1.2
2018-Sep-13 23:30N 51°07' E 001°20'0 0.3
2018-Sep-13 23:01N 51°07' E 001°20'0 1.9
2018-Sep-13 23:00N 51°07' E 001°20'714.5
2018-Sep-13 22:31N 51°05' E 001°31'817.5
2018-Sep-13 22:04N 50°60' E 001°41'118.5
2018-Sep-13 22:00N 50°59' E 001°42'611.4
2018-Sep-13 21:30N 50°58' E 001°51'0 0.0
2018-Sep-13 21:03N 50°58' E 001°51'0 0.0
2018-Sep-13 21:00N 50°58' E 001°51'0 0.4
2018-Sep-13 20:30N 50°58' E 001°51'714.9
2018-Sep-13 20:04N 50°59' E 001°40'117.1
2018-Sep-13 20:01N 50°59' E 001°39'917.8
2018-Sep-13 19:30N 51°05' E 001°28'612.1
2018-Sep-13 19:03N 51°07' E 001°20'0 0.0
2018-Sep-13 19:00N 51°07' E 001°20'0 0.0
2018-Sep-13 18:30N 51°07' E 001°20'1 2.6
2018-Sep-13 18:03N 51°07' E 001°21'118.5
2018-Sep-13 18:00N 51°06' E 001°23'918.0
2018-Sep-13 17:30N 51°02' E 001°35'818.6
2018-Sep-13 17:03N 50°58' E 001°47'119.0
2018-Sep-13 17:00N 50°58' E 001°49'2 2.7
2018-Sep-13 16:26N 50°58' E 001°51'1 2.7
2018-Sep-13 16:04N 50°58' E 001°49'118.3
2018-Sep-13 16:00N 50°58' E 001°48'1019.4
2018-Sep-13 15:30N 51°02' E 001°34'919.5
2018-Sep-13 15:03N 51°07' E 001°22'118.8
2018-Sep-13 15:00N 51°07' E 001°21'1 0.6
2018-Sep-13 14:03N 51°07' E 001°20'0 8.3
2018-Sep-13 14:01N 51°07' E 001°21'816.9
2018-Sep-13 13:30N 51°03' E 001°33'818.2
2018-Sep-13 13:03N 50°59' E 001°43'117.1
2018-Sep-13 13:00N 50°58' E 001°45'4 3.3
2018-Sep-13 11:48N 50°58' E 001°51'2 7.0
2018-Sep-13 11:30N 50°58' E 001°48'715.6
2018-Sep-13 11:03N 50°58' E 001°37'118.2
2018-Sep-13 11:01N 50°59' E 001°35'1019.0
2018-Sep-13 10:31N 51°05' E 001°24'4 7.9
2018-Sep-13 10:03N 51°07' E 001°20'0 0.0
2018-Sep-13 09:54N 51°07' E 001°20'0 0.0
2018-Sep-13 09:27N 51°07' E 001°20'2 6.0
2018-Sep-13 09:04N 51°07' E 001°24'119.8
2018-Sep-13 09:01N 51°07' E 001°25'1019.1
2018-Sep-13 08:30N 51°01' E 001°38'818.4
2018-Sep-13 08:04N 50°58' E 001°50'0 8.9
2018-Sep-13 08:01N 50°58' E 001°51'0 0.5
2018-Sep-13 07:30N 50°58' E 001°51'0 0.1
2018-Sep-13 07:03N 50°58' E 001°51'0 2.4
2018-Sep-13 07:00N 50°58' E 001°51'714.2
2018-Sep-13 06:30N 50°59' E 001°40'816.8
2018-Sep-13 06:03N 51°02' E 001°29'117.7
2018-Sep-13 06:00N 51°03' E 001°28'713.1
2018-Sep-13 05:30N 51°07' E 001°20'0 0.0
2018-Sep-13 05:03N 51°07' E 001°20'0 0.0
2018-Sep-13 05:00N 51°07' E 001°20'0 0.0
2018-Sep-13 04:28N 51°07' E 001°20'2 5.6
2018-Sep-13 04:03N 51°07' E 001°24'115.6
2018-Sep-13 04:00N 51°06' E 001°25'816.5
2018-Sep-13 03:30N 51°02' E 001°36'716.1
2018-Sep-13 03:03N 50°58' E 001°45'114.9
2018-Sep-13 03:01N 50°58' E 001°47'3 6.1
2018-Sep-13 02:30N 50°58' E 001°51'0 0.0
2018-Sep-13 02:03N 50°58' E 001°51'0 0.0
2018-Sep-13 02:00N 50°58' E 001°51'0 0.0
2018-Sep-13 01:29N 50°58' E 001°51'512.2
2018-Sep-13 01:03N 50°58' E 001°43'119.0
2018-Sep-13 01:00N 50°59' E 001°41'918.1
2018-Sep-13 00:30N 51°03' E 001°29'715.6
2018-Sep-13 00:03N 51°07' E 001°20'0 0.2
2018-Sep-13 00:00N 51°07' E 001°20'0 0.0
2018-Sep-12 23:30N 51°07' E 001°20'0 0.0
2018-Sep-12 23:03N 51°07' E 001°20'0 0.0
2018-Sep-12 23:00N 51°07' E 001°20'0 0.0
2018-Sep-12 22:30N 51°07' E 001°20'0 0.0
2018-Sep-12 22:03N 51°07' E 001°20'0 0.0
2018-Sep-12 22:00N 51°07' E 001°20'0 0.0
2018-Sep-12 21:30N 51°07' E 001°20'0 0.0
2018-Sep-12 21:03N 51°07' E 001°20'0 0.0
2018-Sep-12 21:00N 51°07' E 001°20'0 0.0
2018-Sep-12 20:29N 51°07' E 001°20'0 0.0
2018-Sep-12 20:02N 51°07' E 001°20'0 0.0
2018-Sep-12 20:00N 51°07' E 001°20'0 0.0
2018-Sep-12 19:28N 51°07' E 001°20'0 0.0
2018-Sep-12 19:01N 51°07' E 001°20'0 0.0
2018-Sep-12 18:58N 51°07' E 001°20'4 9.2
2018-Sep-12 18:30N 51°06' E 001°26'919.4
2018-Sep-12 18:03N 51°01' E 001°38'119.3
2018-Sep-12 18:00N 51°01' E 001°39'815.4
2018-Sep-12 17:30N 50°58' E 001°51'0 0.2
2018-Sep-12 16:53N 50°58' E 001°51'0 0.0
2018-Sep-12 16:30N 50°58' E 001°51'613.3
2018-Sep-12 16:03N 50°58' E 001°41'119.3
2018-Sep-12 15:59N 50°59' E 001°40'918.8
2018-Sep-12 15:30N 51°04' E 001°28'613.1
2018-Sep-12 15:03N 51°07' E 001°20'0 0.0
2018-Sep-12 15:00N 51°07' E 001°20'0 0.0
2018-Sep-12 14:29N 51°07' E 001°20'3 5.4
2018-Sep-12 14:01N 51°07' E 001°24'918.2
2018-Sep-12 13:31N 51°02' E 001°36'816.8
2018-Sep-12 13:04N 50°58' E 001°47'115.9
2018-Sep-12 13:00N 50°58' E 001°48'2 3.7
2018-Sep-12 12:30N 50°58' E 001°51'0 0.0
2018-Sep-12 11:56N 50°58' E 001°51'511.6
2018-Sep-12 11:30N 50°58' E 001°43'818.2
2018-Sep-12 11:03N 51°02' E 001°32'119.1
2018-Sep-12 11:00N 51°02' E 001°30'816.3
2018-Sep-12 10:30N 51°07' E 001°20'0 0.8
2018-Sep-12 10:03N 51°07' E 001°20'0 0.0
2018-Sep-12 10:00N 51°07' E 001°20'0 0.0
2018-Sep-12 09:30N 51°07' E 001°20'613.9
2018-Sep-12 09:03N 51°05' E 001°29'116.7
2018-Sep-12 09:00N 51°04' E 001°30'918.3
2018-Sep-12 08:30N 50°59' E 001°42'612.8
2018-Sep-12 08:03N 50°58' E 001°51'0 0.0
2018-Sep-12 08:00N 50°58' E 001°51'0 0.0
2018-Sep-12 07:30N 50°58' E 001°51'0 0.0
2018-Sep-12 07:03N 50°58' E 001°51'0 1.9
2018-Sep-12 07:00N 50°58' E 001°51'714.2
2018-Sep-12 06:31N 50°59' E 001°40'818.6
2018-Sep-12 06:04N 51°03' E 001°29'119.5
2018-Sep-12 06:01N 51°04' E 001°28'611.2
2018-Sep-12 05:29N 51°07' E 001°20'0 0.0
2018-Sep-12 05:03N 51°07' E 001°20'0 0.0
2018-Sep-12 04:57N 51°07' E 001°20'0 0.0
2018-Sep-12 04:30N 51°07' E 001°20'2 4.8
2018-Sep-12 04:03N 51°07' E 001°23'117.5
2018-Sep-12 04:00N 51°06' E 001°25'918.3
2018-Sep-12 03:30N 51°01' E 001°37'816.9
2018-Sep-12 03:03N 50°58' E 001°48'116.7
2018-Sep-12 03:00N 50°58' E 001°49'1 2.9
2018-Sep-12 02:30N 50°58' E 001°51'0 0.0
2018-Sep-12 02:03N 50°58' E 001°51'0 0.0
2018-Sep-12 02:00N 50°58' E 001°51'4 8.0
2018-Sep-12 01:30N 50°58' E 001°45'919.7
2018-Sep-12 01:03N 51°02' E 001°33'119.3
2018-Sep-12 01:00N 51°03' E 001°32'917.2
2018-Sep-12 00:30N 51°07' E 001°20'0 0.0
2018-Sep-12 00:03N 51°07' E 001°20'0 0.0
2018-Sep-12 00:00N 51°07' E 001°20'510.5
2018-Sep-11 23:30N 51°06' E 001°28'818.1
2018-Sep-11 23:03N 51°02' E 001°39'118.7
2018-Sep-11 23:00N 51°01' E 001°40'815.2
2018-Sep-11 22:30N 50°58' E 001°51'0 0.2
2018-Sep-11 22:01N 50°58' E 001°51'0 0.0
2018-Sep-11 22:00N 50°58' E 001°51'4 9.2
2018-Sep-11 21:30N 50°58' E 001°44'817.7
2018-Sep-11 21:04N 51°01' E 001°32'119.2
2018-Sep-11 21:00N 51°02' E 001°31'916.8
2018-Sep-11 20:29N 51°07' E 001°20'0 0.0
2018-Sep-11 20:03N 51°07' E 001°20'0 0.0
2018-Sep-11 19:57N 51°07' E 001°20'3 6.5
2018-Sep-11 19:30N 51°07' E 001°25'817.7
2018-Sep-11 19:03N 51°02' E 001°35'119.9
2018-Sep-11 19:00N 51°02' E 001°36'918.7
2018-Sep-11 18:30N 50°58' E 001°50'1 2.4
2018-Sep-11 18:03N 50°58' E 001°52'0 0.0
2018-Sep-11 18:01N 50°58' E 001°52'0 0.0
2018-Sep-11 17:31N 50°58' E 001°52'0 0.0
2018-Sep-11 17:03N 50°58' E 001°52'0 0.0
2018-Sep-11 17:01N 50°58' E 001°52'0 0.0
2018-Sep-11 16:30N 50°58' E 001°52'0 0.0
2018-Sep-11 16:03N 50°58' E 001°52'0 0.0
2018-Sep-11 16:00N 50°58' E 001°52'0 0.0
2018-Sep-11 15:31N 50°58' E 001°52'0 0.0
2018-Sep-11 15:04N 50°58' E 001°52'0 0.0
2018-Sep-11 15:01N 50°58' E 001°52'0 0.0
2018-Sep-11 14:31N 50°58' E 001°52'0 0.0
2018-Sep-11 14:00N 50°58' E 001°52'0 0.0
2018-Sep-11 13:30N 50°58' E 001°52'0 0.2
2018-Sep-11 13:03N 50°58' E 001°51'0 0.9
2018-Sep-11 13:00N 50°58' E 001°51'0 0.2
2018-Sep-11 12:27N 50°58' E 001°52'0 0.0
2018-Sep-11 12:02N 50°58' E 001°52'0 0.4
2018-Sep-11 12:01N 50°58' E 001°52'815.0
2018-Sep-11 11:27N 50°59' E 001°39'819.2
2018-Sep-11 11:03N 51°03' E 001°28'118.5
2018-Sep-11 11:00N 51°04' E 001°27'610.2
2018-Sep-11 10:27N 51°07' E 001°20'0 0.0
2018-Sep-11 10:00N 51°07' E 001°20'1 1.1
2018-Sep-11 09:31N 51°07' E 001°21'613.7
2018-Sep-11 09:03N 51°05' E 001°30'118.3
2018-Sep-11 09:01N 51°05' E 001°31'918.4
2018-Sep-11 08:31N 50°59' E 001°42'512.0
2018-Sep-11 08:03N 50°58' E 001°51'0 0.0
2018-Sep-11 08:00N 50°58' E 001°51'0 0.0
2018-Sep-11 07:30N 50°58' E 001°51'0 0.5
2018-Sep-11 07:03N 50°58' E 001°51'0 7.6
2018-Sep-11 07:01N 50°58' E 001°50'816.0
2018-Sep-11 06:30N 50°60' E 001°38'818.5
2018-Sep-11 06:03N 51°05' E 001°27'118.3
2018-Sep-11 06:00N 51°05' E 001°26'4 7.8
2018-Sep-11 05:27N 51°07' E 001°20'0 0.0
2018-Sep-11 05:03N 51°07' E 001°20'0 0.0
2018-Sep-11 04:55N 51°07' E 001°20'1 1.6
2018-Sep-11 04:30N 51°07' E 001°21'614.3
2018-Sep-11 04:04N 51°05' E 001°30'118.4
2018-Sep-11 04:01N 51°04' E 001°32'918.3
2018-Sep-11 03:31N 50°59' E 001°43'511.3
2018-Sep-11 03:03N 50°58' E 001°52'0 0.4
2018-Sep-11 02:56N 50°58' E 001°52'0 0.0
2018-Sep-11 02:29N 50°58' E 001°52'0 0.3
2018-Sep-11 02:01N 50°58' E 001°51'0 5.6
2018-Sep-11 02:00N 50°58' E 001°51'917.5
2018-Sep-11 01:31N 50°59' E 001°38'919.0
2018-Sep-11 01:03N 51°05' E 001°27'120.4
2018-Sep-11 01:00N 51°05' E 001°26'4 5.5
2018-Sep-11 00:16N 51°07' E 001°20'0 0.0
2018-Sep-11 00:02N 51°07' E 001°20'0 1.1
2018-Sep-10 23:53N 51°07' E 001°20'4 9.7
2018-Sep-10 23:31N 51°08' E 001°26'715.2
2018-Sep-10 23:04N 51°07' E 001°37'117.7
2018-Sep-10 23:01N 51°06' E 001°37'917.9
2018-Sep-10 22:31N 50°58' E 001°45'4 9.6
2018-Sep-10 22:03N 50°58' E 001°52'0 0.0
2018-Sep-10 21:46N 50°58' E 001°52'0 0.0
2018-Sep-10 21:28N 50°58' E 001°52'0 0.0
2018-Sep-10 21:02N 50°58' E 001°52'0 1.2
2018-Sep-10 21:00N 50°58' E 001°52'815.0
2018-Sep-10 20:28N 50°58' E 001°39'717.7
2018-Sep-10 20:04N 51°02' E 001°30'119.2
2018-Sep-10 20:00N 51°03' E 001°29'713.6
2018-Sep-10 19:29N 51°07' E 001°20'0 0.0
2018-Sep-10 19:03N 51°07' E 001°20'0 0.0
2018-Sep-10 18:59N 51°07' E 001°20'1 1.8
2018-Sep-10 18:31N 51°07' E 001°21'818.6
2018-Sep-10 18:04N 51°05' E 001°34'119.1
2018-Sep-10 18:01N 51°04' E 001°35'918.7
2018-Sep-10 17:31N 50°58' E 001°47'3 5.8
2018-Sep-10 17:02N 50°58' E 001°51'0 0.0
2018-Sep-10 16:58N 50°58' E 001°51'0 0.0
2018-Sep-10 16:27N 50°58' E 001°51'512.6
2018-Sep-10 16:03N 50°58' E 001°43'118.7
2018-Sep-10 16:01N 50°58' E 001°42'918.9
2018-Sep-10 15:31N 51°03' E 001°29'715.1
2018-Sep-10 15:03N 51°07' E 001°20'0 0.0
2018-Sep-10 15:00N 51°07' E 001°20'0 0.1
2018-Sep-10 14:03N 51°07' E 001°20'0 1.8
2018-Sep-10 14:00N 51°07' E 001°20'815.7
2018-Sep-10 13:30N 51°04' E 001°32'817.4
2018-Sep-10 13:03N 50°60' E 001°42'117.2
2018-Sep-10 13:00N 50°59' E 001°43'5 9.9
2018-Sep-10 12:29N 50°58' E 001°51'0 0.0
2018-Sep-10 11:50N 50°58' E 001°51'1 3.9
2018-Sep-10 11:31N 50°58' E 001°49'916.0
2018-Sep-10 10:57N 51°01' E 001°36'919.3
2018-Sep-10 10:30N 51°06' E 001°24'3 6.7
2018-Sep-10 10:03N 51°07' E 001°20'0 0.0
2018-Sep-10 10:00N 51°07' E 001°20'0 0.0
2018-Sep-10 09:30N 51°07' E 001°20'511.4
2018-Sep-10 09:03N 51°06' E 001°28'119.2
2018-Sep-10 09:00N 51°05' E 001°29'1019.1
2018-Sep-10 08:30N 50°60' E 001°41'613.7
2018-Sep-10 08:03N 50°58' E 001°51'0 1.3
2018-Sep-10 08:00N 50°58' E 001°51'0 0.0
2018-Sep-10 07:29N 50°58' E 001°51'0 0.0
2018-Sep-10 07:03N 50°58' E 001°51'0 0.0
2018-Sep-10 07:00N 50°58' E 001°51'510.9
2018-Sep-10 06:30N 50°58' E 001°42'818.3
2018-Sep-10 06:03N 51°02' E 001°31'119.4
2018-Sep-10 06:00N 51°03' E 001°30'814.5
2018-Sep-10 05:29N 51°07' E 001°20'0 0.0
2018-Sep-10 05:03N 51°07' E 001°20'0 0.0
2018-Sep-10 04:59N 51°07' E 001°20'0 0.0
2018-Sep-10 04:29N 51°07' E 001°20'1 2.8
2018-Sep-10 04:03N 51°07' E 001°22'1 9.8
2018-Sep-10 04:00N 51°07' E 001°23'917.6
2018-Sep-10 03:30N 51°03' E 001°35'817.0
2018-Sep-10 03:03N 50°58' E 001°45'116.1
2018-Sep-10 03:01N 50°58' E 001°46'3 6.8
2018-Sep-10 02:30N 50°58' E 001°51'0 0.0
2018-Sep-10 02:03N 50°58' E 001°51'0 0.0
2018-Sep-10 02:00N 50°58' E 001°51'0 0.0
2018-Sep-10 01:30N 50°58' E 001°51'3 7.8
2018-Sep-10 01:03N 50°58' E 001°46'118.8
2018-Sep-10 01:01N 50°58' E 001°44'1020.1
2018-Sep-10 00:30N 51°02' E 001°30'817.3
2018-Sep-10 00:03N 51°07' E 001°20'0 4.4
2018-Sep-10 00:01N 51°07' E 001°20'0 0.0
2018-Sep-09 23:31N 51°07' E 001°20'1 3.2
2018-Sep-09 23:03N 51°07' E 001°22'114.8
2018-Sep-09 23:00N 51°07' E 001°24'815.6
2018-Sep-09 22:30N 51°05' E 001°36'716.6
2018-Sep-09 22:03N 50°59' E 001°42'114.8
2018-Sep-09 22:00N 50°59' E 001°43'5 8.5
2018-Sep-09 21:24N 50°58' E 001°51'0 0.0
2018-Sep-09 21:03N 50°58' E 001°51'0 0.0
2018-Sep-09 20:59N 50°58' E 001°51'0 0.3
2018-Sep-09 20:30N 50°58' E 001°51'715.7
2018-Sep-09 20:03N 50°58' E 001°40'116.8
2018-Sep-09 20:00N 50°58' E 001°38'917.6
2018-Sep-09 19:30N 51°03' E 001°27'613.4
2018-Sep-09 19:03N 51°07' E 001°20'0 0.0
2018-Sep-09 19:00N 51°07' E 001°20'0 0.0
2018-Sep-09 18:30N 51°07' E 001°20'0 0.2
2018-Sep-09 18:03N 51°07' E 001°20'0 5.4
2018-Sep-09 18:01N 51°07' E 001°21'918.2
2018-Sep-09 17:30N 51°04' E 001°34'919.8
2018-Sep-09 17:04N 50°58' E 001°45'119.2
2018-Sep-09 17:01N 50°58' E 001°46'3 5.3
2018-Sep-09 16:28N 50°58' E 001°51'0 0.0
2018-Sep-09 16:03N 50°58' E 001°51'0 0.0
2018-Sep-09 16:01N 50°58' E 001°51'814.0
2018-Sep-09 15:28N 50°59' E 001°39'819.7
2018-Sep-09 15:04N 51°04' E 001°29'119.9
2018-Sep-09 15:01N 51°04' E 001°27'510.6
2018-Sep-09 14:30N 51°07' E 001°20'0 0.0
2018-Sep-09 14:00N 51°07' E 001°20'5 9.5
2018-Sep-09 13:30N 51°06' E 001°27'818.6
2018-Sep-09 13:03N 51°01' E 001°38'118.3
2018-Sep-09 13:00N 51°00' E 001°39'815.4
2018-Sep-09 12:30N 50°58' E 001°51'0 0.4
2018-Sep-09 12:03N 50°58' E 001°51'0 0.0
2018-Sep-09 12:01N 50°58' E 001°51'0 0.4
2018-Sep-09 11:30N 50°58' E 001°51'818.2
2018-Sep-09 11:03N 51°00' E 001°38'119.9
2018-Sep-09 11:00N 51°00' E 001°37'1019.7
2018-Sep-09 10:30N 51°06' E 001°24'3 6.2
2018-Sep-09 10:03N 51°07' E 001°20'0 0.0
2018-Sep-09 10:00N 51°07' E 001°20'0 0.0
2018-Sep-09 09:30N 51°07' E 001°20'511.7
2018-Sep-09 09:03N 51°06' E 001°28'119.9
2018-Sep-09 09:00N 51°06' E 001°30'1019.0
2018-Sep-09 08:30N 50°60' E 001°41'714.8
2018-Sep-09 08:03N 50°58' E 001°51'0 1.1
2018-Sep-09 08:01N 50°58' E 001°51'0 0.1
2018-Sep-09 07:30N 50°58' E 001°51'0 1.0
2018-Sep-09 07:03N 50°58' E 001°51'0 9.9
2018-Sep-09 07:00N 50°58' E 001°50'816.8
2018-Sep-09 06:30N 50°59' E 001°37'919.2
2018-Sep-09 06:03N 51°05' E 001°26'118.9
2018-Sep-09 06:00N 51°05' E 001°25'4 7.6
2018-Sep-09 05:30N 51°07' E 001°20'0 0.0
2018-Sep-09 05:03N 51°07' E 001°20'0 0.0
2018-Sep-09 04:59N 51°07' E 001°20'0 0.0
2018-Sep-09 04:30N 51°07' E 001°20'0 0.8
2018-Sep-09 04:03N 51°07' E 001°21'114.0
2018-Sep-09 04:00N 51°07' E 001°22'1019.2
2018-Sep-09 03:30N 51°03' E 001°35'918.9
2018-Sep-09 03:03N 50°58' E 001°47'120.1
2018-Sep-09 03:00N 50°58' E 001°48'  

Dump ship's entire track history